Altus Air Force Base Altus US
ICAO: KLTS
IATA: LTS
Category: Large
Scheduled Services: No

Elevation: 1382 ft
TransAlt. 18000 ft.

Airport Communications:
APP:125.1
ATIS:27.35
CLNC DEL:120.65
DEP:125.1
GND:121.85
PMSV METRO:23.98
COMD POST:31.1
PTD:37.22
TWR:119.65

KLTS Zoom In..

If you have problems with the map follow the link
https://www.worldairports.se/pages/airport.php?
ICAO=KLTS

Runways:

(A) RW 17L length 9001 ft width 150 ft
ILS 110.55 / hdg 172

(B) RW 17R length 13440 ft width 150 ft
ILS 111.30 / hdg 172

(C) RW 35L length 13440 ft width 150 ft
ILS 110.30 / hdg 352

(D) RW 35R length 9001 ft width 150 ft
ILS 110.55 / hdg 352

Location; KLTS
Day. 16 / Time. 10.56 Zulu
* Altimeter: 30.08
* Temperature: 06° c. 42.8°f.
* Wind from: 000° Speed 00 kn.
Dewpoint: 02° c.
Visibility: 10 Statute Miles.
Clouds: Clear (automated report).

KLTS 161056Z AUTO 00000KT 10SM CLR 06/02 A3008 RMK AO2 SLP184 T00640021 $


Wind - Calm.

 
 
jpsmedia.com for Web Design worldairports.se 2018   terms of use